Tyner, North Carolina
Current Conditions -  °F | °C
As of 1:55 AM on Friday 28 Nov 2014 (Local Time) from KEDE Reporting Station
Broken Clouds Broken Clouds  
Wind Chill: 33°   Ceiling: 7000
Heat Index: 38°   Visibility: 10mi
Dew Point: 34°   Wind: 7mph
Humidity: 83%   Direction: 330°NNW
Pressure: 30.2"   Gusts: NA
Location:  36.21°N, 76.61°W
Report Text: KEDE 280655Z AUTO 33006KT 10SM BKN070 04/01 A3020 RMK AO2 T00350009
Loading
Personal Weather Stations






























Interactive Weather Map New forecast layout! Learn more

10-Day Weather Forecast

Advertisements
Track Severe Weather on mobile